Arcata Airport
KACV : rendu visible

Aérodrome :











RETROUVEZ-NOUS SUR...

 
LOGIN :

S'inscrire | Disclaimer

   EN    FR    IT 

 









Légende :    VFR   VFR Marginal   IFR   IFR Intensif   IFR Très Intensif
Visi : 
Plafond : 
>= 8 km
>= 3000ft
5 à 8 km
1000 à 3000 ft
1500m à 5 km
500 à 1000 ft
800 à 1500m
200 à 500 ft
< 800m
< 200 ft
Symboles :   Orages  Brouillard  Fortes neiges  Fortes précipitations  Vent > 20 kt






- Altitude de l'aérodrome : 221 ft
- Code IATA : ACV


KACV - Arcata

DERNIER METAR :
  • 121106Z AUTO 09003KT 1/4SM R32/1200V1400FT FG VV001 08/08 A3010 RMK AO2 T00830078

METARs EXPIRÉS :
  • 121053Z AUTO 00000KT 1/4SM R32/1400V4000FT FG VV001 08/08 A3011 RMK AO2 SLP200 T00830083
  • 121043Z AUTO 00000KT 1SM R32/2800V3500FT BR VV002 08/08 A3010 RMK AO2 T00780078
  • 121033Z AUTO 00000KT 1/2SM R32/1600V2800FT FG OVC001 08/07 A3010 RMK AO2 T00780072
  • 121021Z AUTO 00000KT 1/4SM R32/1800V4000FT FG VV001 08/08 A3010 RMK AO2 T00780078
  • 121003Z AUTO 00000KT 1/4SM R32/1400V1600FT FG VV002 09/08 A3009 RMK AO2 T00890083
  • 120953Z AUTO 00000KT 1/4SM R32/1600V2000FT FG VV001 09/08 A3009 RMK AO2 SLP195 T00890083
  • 120901Z AUTO 30004KT 1/4SM R32/1200V1600FT FG VV001 09/08 A3010 RMK AO2 T00890083
  • 120853Z AUTO 29005KT 1/4SM R32/1000VP6000FT FG VV001 08/07 A3009 RMK AO2 SLP196 T00830072 58008
  • 120835Z AUTO 00000KT 1SM R32/4000VP6000FT BR VV001 08/08 A3008 RMK AO2 T00830078

TAF KACV
Valide du 12 à 06h jusqu'au 13 à 06h UTC


120608Z 1206/1306 VRB03KT 1/4SM FG VV001
TEMPO 1206/1210 1/2SM FG OVC002
FM121000 00000KT 1/2SM FG OVC001
TEMPO 1210/1214 1/4SM FG
FM121700 VRB02KT P6SM BKN010
FM122100 32007KT P6SM SCT010 BKN250
FM130100 VRB03KT 3SM BR BKN003



MET'MAP, la Météo Aéronautique d'un coup d'oeil ! - Copyright ORBIFLY Décembre 2007 - Disclaimer

ORBIFLY MET'MAP TEAM :

Programmation & Développement : Alexandra Zaïnal
Conception & Développement : Baudouin d'Aumeries
Co-Programmation & Développement : Marc-Olivier Méhu
Soutien technique & logistique : Manuel Goepfert

Contact : metmap@orbifly.com




SOURCES & CREDITS :

   NOAA       Earth
Advisory